Portada
METAR-TAF:

METAR-TAF

Aeropuertos :

Laurel, Misisipi, Estados Unidos

latitud: 31-40-23N, longitud: 089-10-22W, altitud: 73 m

Observación

El informe se hizo hace 9 minutos, a las 23:35 UTC
Viento calma
Temperatura 12°C
Humedad 94%
Presión 1013 hPa
Visibilidad: 16.1 km
Nubes dispersas a una altura de 2500 ft

METAR: KLUL 142335Z AUTO 00000KT 10SM SCT025 12/11 A2990 RMK A02 T01200109

Hora: 17:44 (23:44 UTC)


TAF: falta

Observaciones y pronósticos meteorológicos de más de 4000 aeropuertos (mensajes METAR y TAF).

Los puntos amarillos y rojos representan las estaciones disponibles.

Ponga el ratón en el punto deseado para ver el nombre de la estación.

Haga clic para ver las observaciones y los pronósticos meteorológicos.

Para cambiar el mapa : haga clic en los botones verdes con una cruz de color negro para hacer un zoom, en el botón verde con un guión para alejar o en las flechas verdes para mapas adyacentes.


METAR-TAF: